Christos Xliii — SVA7832 — position and weather

sailwx.info

Track history (hours):
 
Tides and Currents Weather Stations Pressure Air Temp Water Temp Dewpoint Dewpoint Depression Visibility Wind Speed Wind Dir Waves Ship Positions

Christos Xliii

Last reported at 2018-Jan-23 14:00 UTC. Time now 2018-Jan-23 18:07 UTC.
Position N 37°58' E 023°34'.

; draft 4.3 m.

Type: Tug. MMSI: 241532000.

Date/timePositionNaut miles runAvg speedWind from/ knotsBaromVisibWave heightAir tempDewpointWater temp
2018-Jan-23 14:00N 37°58' E 023°34'4 7.6
2018-Jan-23 13:30N 38°01' E 023°35'0 0.7
2018-Jan-23 13:00N 38°01' E 023°36'0 0.5
2018-Jan-23 12:30N 38°01' E 023°36'0 0.0
2018-Jan-23 12:00N 38°01' E 023°36'0 0.0
2018-Jan-23 11:30N 38°01' E 023°36'0 0.0
2018-Jan-23 11:00N 38°01' E 023°36'0 0.0
2018-Jan-23 10:30N 38°01' E 023°36'0 0.0
2018-Jan-23 10:01N 38°01' E 023°36'0 0.0
2018-Jan-23 09:30N 38°01' E 023°36'0 0.0
2018-Jan-23 09:00N 38°01' E 023°36'3 6.1
2018-Jan-23 08:30N 37°59' E 023°33'2 3.4
2018-Jan-23 08:00N 37°58' E 023°34'0 0.0
2018-Jan-23 07:31N 37°58' E 023°34'0 0.0
2018-Jan-23 07:00N 37°58' E 023°34'0 0.0
2018-Jan-23 06:31N 37°58' E 023°34'0 0.0
2018-Jan-23 06:00N 37°58' E 023°34'0 0.0
2018-Jan-23 05:30N 37°58' E 023°34'0 0.0
2018-Jan-23 05:00N 37°58' E 023°34'0 0.0
2018-Jan-22 12:51N 37°58' E 023°34'0 0.2
2018-Jan-22 12:31N 37°58' E 023°34'1 1.5
2018-Jan-22 12:01N 37°57' E 023°35'2 3.3
2018-Jan-22 11:30N 37°56' E 023°36'4 8.8
2018-Jan-22 11:00N 37°60' E 023°33'3 5.2
2018-Jan-22 10:30N 38°01' E 023°36'0 0.0
2018-Jan-22 10:00N 38°01' E 023°36'2 4.0
2018-Jan-22 09:30N 38°00' E 023°34'3 5.4
2018-Jan-22 09:01N 37°58' E 023°34'0 0.1
2018-Jan-22 08:31N 37°58' E 023°34'0 0.0
2018-Jan-22 08:01N 37°58' E 023°34'0 0.0
2018-Jan-22 07:31N 37°58' E 023°34'0 0.0
2018-Jan-22 06:59N 37°58' E 023°34'0 0.0
2018-Jan-22 06:31N 37°58' E 023°34'0 0.0
2018-Jan-22 06:00N 37°58' E 023°34'0 0.0
2018-Jan-22 05:30N 37°58' E 023°34'0 0.0
2018-Jan-22 05:00N 37°58' E 023°34'0 0.0
2018-Jan-21 12:48N 37°58' E 023°34'2 6.0
2018-Jan-21 12:30N 37°59' E 023°33'3 5.9
2018-Jan-21 12:00N 38°01' E 023°36'0 0.0
2018-Jan-21 11:30N 38°01' E 023°36'0 0.0
2018-Jan-21 11:00N 38°01' E 023°36'0 0.0
2018-Jan-21 10:30N 38°01' E 023°36'0 0.0
2018-Jan-21 10:00N 38°01' E 023°36'0 0.0
2018-Jan-21 09:30N 38°01' E 023°36'0 0.0
2018-Jan-21 09:00N 38°01' E 023°36'0 0.1
2018-Jan-21 08:30N 38°01' E 023°35'0 0.1
2018-Jan-21 08:00N 38°01' E 023°36'0 0.0
2018-Jan-21 07:30N 38°01' E 023°35'0 0.0
2018-Jan-21 07:00N 38°01' E 023°35'0 0.0
2018-Jan-21 06:30N 38°01' E 023°35'0 0.0
2018-Jan-21 06:00N 38°01' E 023°35'0 0.0
2018-Jan-21 05:30N 38°01' E 023°36'0 0.0
2018-Jan-21 05:00N 38°01' E 023°36'0 0.0
2018-Jan-21 04:31N 38°01' E 023°35'0 0.0
2018-Jan-21 04:00N 38°01' E 023°36'0 0.0
2018-Jan-21 03:30N 38°01' E 023°35'0 0.0
2018-Jan-21 03:01N 38°01' E 023°35'0 0.0
2018-Jan-21 02:30N 38°01' E 023°35'0 0.0
2018-Jan-21 02:00N 38°01' E 023°36'0 0.0
2018-Jan-21 01:30N 38°01' E 023°35'0 0.0
2018-Jan-21 01:00N 38°01' E 023°35'0 0.0
2018-Jan-21 00:30N 38°01' E 023°35'0 0.0
2018-Jan-21 00:00N 38°01' E 023°35'0 0.0
2018-Jan-20 23:30N 38°01' E 023°35'0 0.0
2018-Jan-20 23:00N 38°01' E 023°35'0 0.0
2018-Jan-20 22:30N 38°01' E 023°36'0 0.0
2018-Jan-20 22:00N 38°01' E 023°35'0 0.0
2018-Jan-20 21:30N 38°01' E 023°35'0 0.0
2018-Jan-20 21:00N 38°01' E 023°35'0 0.0
2018-Jan-20 20:30N 38°01' E 023°36'0 0.0
2018-Jan-20 20:00N 38°01' E 023°35'0 0.0
2018-Jan-20 19:30N 38°01' E 023°35'0 0.0
2018-Jan-20 19:00N 38°01' E 023°35'0 0.0
2018-Jan-20 18:30N 38°01' E 023°36'0 0.0
2018-Jan-20 18:00N 38°01' E 023°36'0 0.0
2018-Jan-20 17:30N 38°01' E 023°35'0 0.0
2018-Jan-20 17:00N 38°01' E 023°36'0 0.0
2018-Jan-20 16:30N 38°01' E 023°36'0 0.0
2018-Jan-20 16:00N 38°01' E 023°36'0 0.0
2018-Jan-20 15:30N 38°01' E 023°36'0 0.0
2018-Jan-20 15:01N 38°01' E 023°36'0 0.0
2018-Jan-20 14:30N 38°01' E 023°36'0 0.0
2018-Jan-20 14:00N 38°01' E 023°35'0 0.0
2018-Jan-20 13:30N 38°01' E 023°35'0 0.0
2018-Jan-20 13:01N 38°01' E 023°35'0 0.0
2018-Jan-20 12:30N 38°01' E 023°35'0 0.0
2018-Jan-20 12:00N 38°01' E 023°35'0 0.0
2018-Jan-20 11:30N 38°01' E 023°36'0 0.0
2018-Jan-20 11:00N 38°01' E 023°35'0 0.0
2018-Jan-20 10:30N 38°01' E 023°36'0 0.0
2018-Jan-20 10:00N 38°01' E 023°36'0 0.0
2018-Jan-20 09:30N 38°01' E 023°36'0 0.0
2018-Jan-20 09:00N 38°01' E 023°36'0 0.3
2018-Jan-20 08:30N 38°01' E 023°36'1 1.8
2018-Jan-20 08:00N 38°01' E 023°35'3 6.3
2018-Jan-20 07:30N 37°58' E 023°33'1 1.9
2018-Jan-20 07:00N 37°58' E 023°34'0 0.0
2018-Jan-20 06:30N 37°58' E 023°34'0 0.0
2018-Jan-20 06:00N 37°58' E 023°34'0 0.0
2018-Jan-20 05:30N 37°58' E 023°34'0 0.0
2018-Jan-20 05:01N 37°58' E 023°34'0 0.0
2018-Jan-19 20:39N 37°58' E 023°34'0 1.5
2018-Jan-19 20:31N 37°57' E 023°34'2 4.9
2018-Jan-19 20:00N 37°56' E 023°36'5 9.2
2018-Jan-19 19:30N 37°52' E 023°38'0 0.5
2018-Jan-19 19:00N 37°52' E 023°38'0 0.1
2018-Jan-19 18:30N 37°52' E 023°38'0 0.2
2018-Jan-19 18:00N 37°52' E 023°38'0 0.2
2018-Jan-19 17:30N 37°52' E 023°38'0 0.2
2018-Jan-19 17:00N 37°52' E 023°38'0 0.5
2018-Jan-19 16:30N 37°52' E 023°39'0 0.3
2018-Jan-19 16:00N 37°52' E 023°38'0 0.2
2018-Jan-19 15:30N 37°52' E 023°39'0 0.1
2018-Jan-19 15:00N 37°52' E 023°39'0 0.5
2018-Jan-19 14:30N 37°52' E 023°38'0 0.0
2018-Jan-19 14:00N 37°52' E 023°38'0 0.1
2018-Jan-19 13:30N 37°52' E 023°38'0 0.4
2018-Jan-19 13:00N 37°52' E 023°38'0 0.0
2018-Jan-19 12:30N 37°52' E 023°38'0 0.4
2018-Jan-19 12:00N 37°52' E 023°38'0 0.1
2018-Jan-19 11:30N 37°52' E 023°38'0 0.1
2018-Jan-19 11:00N 37°52' E 023°38'0 0.2
2018-Jan-19 10:30N 37°52' E 023°38'3 6.0
2018-Jan-19 10:00N 37°55' E 023°37'4 7.4
2018-Jan-19 09:30N 37°58' E 023°34'0 0.2
2018-Jan-19 09:01N 37°58' E 023°34'0 0.0
2018-Jan-19 08:30N 37°58' E 023°34'0 0.0
2018-Jan-19 08:00N 37°58' E 023°34'0 0.0
2018-Jan-19 07:30N 37°58' E 023°34'0 0.0
2018-Jan-19 07:00N 37°58' E 023°34'0 0.0
2018-Jan-19 06:30N 37°58' E 023°34'0 0.0
2018-Jan-19 06:00N 37°58' E 023°34'0 0.0
2018-Jan-19 05:30N 37°58' E 023°34'1 2.6
2018-Jan-19 05:00N 37°57' E 023°35'1 2.6
2018-Jan-19 04:30N 37°58' E 023°34'0 0.0
2018-Jan-19 04:00N 37°58' E 023°34'0 0.0
2018-Jan-18 20:14N 37°58' E 023°34'1 2.9
2018-Jan-18 20:01N 37°58' E 023°33'4 8.7
2018-Jan-18 19:30N 38°01' E 023°35'0 0.2
2018-Jan-18 19:00N 38°01' E 023°35'2 3.3
2018-Jan-18 18:30N 38°00' E 023°34'2 3.0
2018-Jan-18 18:00N 37°59' E 023°33'3 5.7
2018-Jan-18 17:30N 37°57' E 023°36'0 0.4
2018-Jan-18 17:00N 37°57' E 023°36'2 3.6
2018-Jan-18 16:30N 37°55' E 023°36'2 3.3
2018-Jan-18 16:00N 37°57' E 023°35'2 3.5
2018-Jan-18 15:30N 37°58' E 023°33'0 0.0
2018-Jan-18 15:01N 37°58' E 023°33'0 0.0
2018-Jan-18 14:30N 37°58' E 023°33'0 0.0
2018-Jan-18 14:00N 37°58' E 023°33'0 0.1
2018-Jan-18 13:30N 37°58' E 023°33'0 0.7
2018-Jan-18 13:00N 37°57' E 023°33'1 1.2
2018-Jan-18 12:30N 37°58' E 023°34'0 0.6
2018-Jan-18 12:00N 37°57' E 023°34'1 3.0
2018-Jan-18 11:30N 37°57' E 023°36'0 0.0
2018-Jan-18 11:00N 37°57' E 023°36'0 0.0
2018-Jan-18 10:30N 37°57' E 023°36'0 0.0
2018-Jan-18 10:00N 37°57' E 023°36'0 0.0
2018-Jan-18 09:30N 37°57' E 023°36'0 0.9
2018-Jan-18 09:00N 37°57' E 023°35'1 2.2
2018-Jan-18 08:31N 37°56' E 023°35'2 3.0
2018-Jan-18 08:00N 37°55' E 023°36'2 4.3
2018-Jan-18 07:30N 37°57' E 023°35'1 2.1
2018-Jan-18 07:00N 37°58' E 023°34'0 0.0
2018-Jan-18 06:30N 37°58' E 023°34'0 0.0
2018-Jan-18 06:00N 37°58' E 023°34'0 0.0
2018-Jan-18 05:30N 37°58' E 023°34'0 0.0
2018-Jan-18 05:00N 37°58' E 023°34'0 0.0
2018-Jan-18 04:31N 37°58' E 023°34'0 0.0
2018-Jan-18 04:00N 37°58' E 023°34'  
Track history (hours):
 
Tides and Currents Weather Stations Pressure Air Temp Water Temp Dewpoint Dewpoint Depression Visibility Wind Speed Wind Dir Waves Ship Positions

Christos Xliii

Last reported at 2018-Jan-23 14:00 UTC. Time now 2018-Jan-23 18:07 UTC.
Position N 37°58' E 023°34'.

; draft 4.3 m.

Type: Tug. MMSI: 241532000.

Date/timePositionNaut miles runAvg speedWind from/ knotsBaromVisibWave heightAir tempDewpointWater temp
2018-Jan-23 14:00N 37°58' E 023°34'4 7.6
2018-Jan-23 13:30N 38°01' E 023°35'0 0.7
2018-Jan-23 13:00N 38°01' E 023°36'0 0.5
2018-Jan-23 12:30N 38°01' E 023°36'0 0.0
2018-Jan-23 12:00N 38°01' E 023°36'0 0.0
2018-Jan-23 11:30N 38°01' E 023°36'0 0.0
2018-Jan-23 11:00N 38°01' E 023°36'0 0.0
2018-Jan-23 10:30N 38°01' E 023°36'0 0.0
2018-Jan-23 10:01N 38°01' E 023°36'0 0.0
2018-Jan-23 09:30N 38°01' E 023°36'0 0.0
2018-Jan-23 09:00N 38°01' E 023°36'3 6.1
2018-Jan-23 08:30N 37°59' E 023°33'2 3.4
2018-Jan-23 08:00N 37°58' E 023°34'0 0.0
2018-Jan-23 07:31N 37°58' E 023°34'0 0.0
2018-Jan-23 07:00N 37°58' E 023°34'0 0.0
2018-Jan-23 06:31N 37°58' E 023°34'0 0.0
2018-Jan-23 06:00N 37°58' E 023°34'0 0.0
2018-Jan-23 05:30N 37°58' E 023°34'0 0.0
2018-Jan-23 05:00N 37°58' E 023°34'0 0.0
2018-Jan-22 12:51N 37°58' E 023°34'0 0.2
2018-Jan-22 12:31N 37°58' E 023°34'1 1.5
2018-Jan-22 12:01N 37°57' E 023°35'2 3.3
2018-Jan-22 11:30N 37°56' E 023°36'4 8.8
2018-Jan-22 11:00N 37°60' E 023°33'3 5.2
2018-Jan-22 10:30N 38°01' E 023°36'0 0.0
2018-Jan-22 10:00N 38°01' E 023°36'2 4.0
2018-Jan-22 09:30N 38°00' E 023°34'3 5.4
2018-Jan-22 09:01N 37°58' E 023°34'0 0.1
2018-Jan-22 08:31N 37°58' E 023°34'0 0.0
2018-Jan-22 08:01N 37°58' E 023°34'0 0.0
2018-Jan-22 07:31N 37°58' E 023°34'0 0.0
2018-Jan-22 06:59N 37°58' E 023°34'0 0.0
2018-Jan-22 06:31N 37°58' E 023°34'0 0.0
2018-Jan-22 06:00N 37°58' E 023°34'0 0.0
2018-Jan-22 05:30N 37°58' E 023°34'0 0.0
2018-Jan-22 05:00N 37°58' E 023°34'0 0.0
2018-Jan-21 12:48N 37°58' E 023°34'2 6.0
2018-Jan-21 12:30N 37°59' E 023°33'3 5.9
2018-Jan-21 12:00N 38°01' E 023°36'0 0.0
2018-Jan-21 11:30N 38°01' E 023°36'0 0.0
2018-Jan-21 11:00N 38°01' E 023°36'0 0.0
2018-Jan-21 10:30N 38°01' E 023°36'0 0.0
2018-Jan-21 10:00N 38°01' E 023°36'0 0.0
2018-Jan-21 09:30N 38°01' E 023°36'0 0.0
2018-Jan-21 09:00N 38°01' E 023°36'0 0.1
2018-Jan-21 08:30N 38°01' E 023°35'0 0.1
2018-Jan-21 08:00N 38°01' E 023°36'0 0.0
2018-Jan-21 07:30N 38°01' E 023°35'0 0.0
2018-Jan-21 07:00N 38°01' E 023°35'0 0.0
2018-Jan-21 06:30N 38°01' E 023°35'0 0.0
2018-Jan-21 06:00N 38°01' E 023°35'0 0.0
2018-Jan-21 05:30N 38°01' E 023°36'0 0.0
2018-Jan-21 05:00N 38°01' E 023°36'0 0.0
2018-Jan-21 04:31N 38°01' E 023°35'0 0.0
2018-Jan-21 04:00N 38°01' E 023°36'0 0.0
2018-Jan-21 03:30N 38°01' E 023°35'0 0.0
2018-Jan-21 03:01N 38°01' E 023°35'0 0.0
2018-Jan-21 02:30N 38°01' E 023°35'0 0.0
2018-Jan-21 02:00N 38°01' E 023°36'0 0.0
2018-Jan-21 01:30N 38°01' E 023°35'0 0.0
2018-Jan-21 01:00N 38°01' E 023°35'0 0.0
2018-Jan-21 00:30N 38°01' E 023°35'0 0.0
2018-Jan-21 00:00N 38°01' E 023°35'0 0.0
2018-Jan-20 23:30N 38°01' E 023°35'0 0.0
2018-Jan-20 23:00N 38°01' E 023°35'0 0.0
2018-Jan-20 22:30N 38°01' E 023°36'0 0.0
2018-Jan-20 22:00N 38°01' E 023°35'0 0.0
2018-Jan-20 21:30N 38°01' E 023°35'0 0.0
2018-Jan-20 21:00N 38°01' E 023°35'0 0.0
2018-Jan-20 20:30N 38°01' E 023°36'0 0.0
2018-Jan-20 20:00N 38°01' E 023°35'0 0.0
2018-Jan-20 19:30N 38°01' E 023°35'0 0.0
2018-Jan-20 19:00N 38°01' E 023°35'0 0.0
2018-Jan-20 18:30N 38°01' E 023°36'0 0.0
2018-Jan-20 18:00N 38°01' E 023°36'0 0.0
2018-Jan-20 17:30N 38°01' E 023°35'0 0.0
2018-Jan-20 17:00N 38°01' E 023°36'0 0.0
2018-Jan-20 16:30N 38°01' E 023°36'0 0.0
2018-Jan-20 16:00N 38°01' E 023°36'0 0.0
2018-Jan-20 15:30N 38°01' E 023°36'0 0.0
2018-Jan-20 15:01N 38°01' E 023°36'0 0.0
2018-Jan-20 14:30N 38°01' E 023°36'0 0.0
2018-Jan-20 14:00N 38°01' E 023°35'0 0.0
2018-Jan-20 13:30N 38°01' E 023°35'0 0.0
2018-Jan-20 13:01N 38°01' E 023°35'0 0.0
2018-Jan-20 12:30N 38°01' E 023°35'0 0.0
2018-Jan-20 12:00N 38°01' E 023°35'0 0.0
2018-Jan-20 11:30N 38°01' E 023°36'0 0.0
2018-Jan-20 11:00N 38°01' E 023°35'0 0.0
2018-Jan-20 10:30N 38°01' E 023°36'0 0.0
2018-Jan-20 10:00N 38°01' E 023°36'0 0.0
2018-Jan-20 09:30N 38°01' E 023°36'0 0.0
2018-Jan-20 09:00N 38°01' E 023°36'0 0.3
2018-Jan-20 08:30N 38°01' E 023°36'1 1.8
2018-Jan-20 08:00N 38°01' E 023°35'3 6.3
2018-Jan-20 07:30N 37°58' E 023°33'1 1.9
2018-Jan-20 07:00N 37°58' E 023°34'0 0.0
2018-Jan-20 06:30N 37°58' E 023°34'0 0.0
2018-Jan-20 06:00N 37°58' E 023°34'0 0.0
2018-Jan-20 05:30N 37°58' E 023°34'0 0.0
2018-Jan-20 05:01N 37°58' E 023°34'0 0.0
2018-Jan-19 20:39N 37°58' E 023°34'0 1.5
2018-Jan-19 20:31N 37°57' E 023°34'2 4.9
2018-Jan-19 20:00N 37°56' E 023°36'5 9.2
2018-Jan-19 19:30N 37°52' E 023°38'0 0.5
2018-Jan-19 19:00N 37°52' E 023°38'0 0.1
2018-Jan-19 18:30N 37°52' E 023°38'0 0.2
2018-Jan-19 18:00N 37°52' E 023°38'0 0.2
2018-Jan-19 17:30N 37°52' E 023°38'0 0.2
2018-Jan-19 17:00N 37°52' E 023°38'0 0.5
2018-Jan-19 16:30N 37°52' E 023°39'0 0.3
2018-Jan-19 16:00N 37°52' E 023°38'0 0.2
2018-Jan-19 15:30N 37°52' E 023°39'0 0.1
2018-Jan-19 15:00N 37°52' E 023°39'0 0.5
2018-Jan-19 14:30N 37°52' E 023°38'0 0.0
2018-Jan-19 14:00N 37°52' E 023°38'0 0.1
2018-Jan-19 13:30N 37°52' E 023°38'0 0.4
2018-Jan-19 13:00N 37°52' E 023°38'0 0.0
2018-Jan-19 12:30N 37°52' E 023°38'0 0.4
2018-Jan-19 12:00N 37°52' E 023°38'0 0.1
2018-Jan-19 11:30N 37°52' E 023°38'0 0.1
2018-Jan-19 11:00N 37°52' E 023°38'0 0.2
2018-Jan-19 10:30N 37°52' E 023°38'3 6.0
2018-Jan-19 10:00N 37°55' E 023°37'4 7.4
2018-Jan-19 09:30N 37°58' E 023°34'0 0.2
2018-Jan-19 09:01N 37°58' E 023°34'0 0.0
2018-Jan-19 08:30N 37°58' E 023°34'0 0.0
2018-Jan-19 08:00N 37°58' E 023°34'0 0.0
2018-Jan-19 07:30N 37°58' E 023°34'0 0.0
2018-Jan-19 07:00N 37°58' E 023°34'0 0.0
2018-Jan-19 06:30N 37°58' E 023°34'0 0.0
2018-Jan-19 06:00N 37°58' E 023°34'0 0.0
2018-Jan-19 05:30N 37°58' E 023°34'1 2.6
2018-Jan-19 05:00N 37°57' E 023°35'1 2.6
2018-Jan-19 04:30N 37°58' E 023°34'0 0.0
2018-Jan-19 04:00N 37°58' E 023°34'0 0.0
2018-Jan-18 20:14N 37°58' E 023°34'1 2.9
2018-Jan-18 20:01N 37°58' E 023°33'4 8.7
2018-Jan-18 19:30N 38°01' E 023°35'0 0.2
2018-Jan-18 19:00N 38°01' E 023°35'2 3.3
2018-Jan-18 18:30N 38°00' E 023°34'2 3.0
2018-Jan-18 18:00N 37°59' E 023°33'3 5.7
2018-Jan-18 17:30N 37°57' E 023°36'0 0.4
2018-Jan-18 17:00N 37°57' E 023°36'2 3.6
2018-Jan-18 16:30N 37°55' E 023°36'2 3.3
2018-Jan-18 16:00N 37°57' E 023°35'2 3.5
2018-Jan-18 15:30N 37°58' E 023°33'0 0.0
2018-Jan-18 15:01N 37°58' E 023°33'0 0.0
2018-Jan-18 14:30N 37°58' E 023°33'0 0.0
2018-Jan-18 14:00N 37°58' E 023°33'0 0.1
2018-Jan-18 13:30N 37°58' E 023°33'0 0.7
2018-Jan-18 13:00N 37°57' E 023°33'1 1.2
2018-Jan-18 12:30N 37°58' E 023°34'0 0.6
2018-Jan-18 12:00N 37°57' E 023°34'1 3.0
2018-Jan-18 11:30N 37°57' E 023°36'0 0.0
2018-Jan-18 11:00N 37°57' E 023°36'0 0.0
2018-Jan-18 10:30N 37°57' E 023°36'0 0.0
2018-Jan-18 10:00N 37°57' E 023°36'0 0.0
2018-Jan-18 09:30N 37°57' E 023°36'0 0.9
2018-Jan-18 09:00N 37°57' E 023°35'1 2.2
2018-Jan-18 08:31N 37°56' E 023°35'2 3.0
2018-Jan-18 08:00N 37°55' E 023°36'2 4.3
2018-Jan-18 07:30N 37°57' E 023°35'1 2.1
2018-Jan-18 07:00N 37°58' E 023°34'0 0.0
2018-Jan-18 06:30N 37°58' E 023°34'0 0.0
2018-Jan-18 06:00N 37°58' E 023°34'0 0.0
2018-Jan-18 05:30N 37°58' E 023°34'0 0.0
2018-Jan-18 05:00N 37°58' E 023°34'0 0.0
2018-Jan-18 04:31N 37°58' E 023°34'0 0.0
2018-Jan-18 04:00N 37°58' E 023°34'  

Dump ship's entire track history